LSZB/BRN METAR and TAF weather

Enter ICAO airport designator
Station Type Date Time Source
LSZB METAR 2019/10/22 15:50 UTC NOAA

LSZB 221550Z VRB02KT 9999 SCT014 BKN019 14/13 Q1021 NOSIG


Station Type Date Time Source
LSZB Decoded METAR 2019/10/22 15:50 UTC NOAA

Bern / Belp , Switzerland (LSZB) 46-55N 007-30E
Oct 22, 2019 - 11:50 AM EDT / 2019.10.22 1550 UTC
Wind: Variable at 2 MPH (2 KT):0
Visibility: greater than 7 mile(s):0
Sky conditions: mostly cloudy
Temperature: 57 F (14 C)
Dew Point: 55 F (13 C)
Relative Humidity: 93%
Pressure (altimeter): 30.15 in. Hg (1021 hPa)
ob: LSZB 221550Z VRB02KT 9999 SCT014 BKN019 14/13 Q1021 NOSIG
cycle: 16

Station Type Date Time Source
LSZB TAF 2014/12/22 20:03 UTC NOAA

TAF
AMD TAF
AMD LSZB 222054Z 2220/2224 CNL

Example: see airport list